Time;durP1;ratioP1;P1;durP2;ratioP2;P2;SDS_P1;SDS_P2;PMS_P1;PMS_P2;Temp;Humidity;BMP_temperature;BMP_pressure;BME280_temperature;BME280_humidity;BME280_pressure;Samples;Min_cycle;Max_cycle;Signal;HPM_P1;HPM_P2
2022/06/12 00:01:19;;;;;;;12.10;9.40;;;21.50;39.60;;;;;;5060261;28;20490;-71
2022/06/12 00:03:47;;;;;;;15.57;8.90;;;21.70;39.10;;;;;;5059893;28;20555;-71
2022/06/12 00:06:14;;;;;;;16.90;9.30;;;21.50;41.00;;;;;;5068728;28;20469;-72
2022/06/12 00:08:41;;;;;;;12.07;8.93;;;21.50;39.70;;;;;;5064877;28;20718;-71
2022/06/12 00:11:10;;;;;;;13.37;8.37;;;21.60;39.70;;;;;;5060423;28;20434;-72
2022/06/12 00:13:50;;;;;;;154.27;11.93;;;21.40;40.90;;;;;;5064433;28;20421;-71
2022/06/12 00:16:16;;;;;;;14.03;8.53;;;21.30;40.20;;;;;;5063473;28;20465;-71
2022/06/12 00:18:42;;;;;;;16.33;9.47;;;21.30;39.70;;;;;;5064531;28;20438;-71
2022/06/12 00:21:13;;;;;;;11.67;8.73;;;21.40;40.50;;;;;;5059857;28;20490;-71
2022/06/12 00:23:55;;;;;;;15.20;8.37;;;21.40;40.60;;;;;;5065313;28;20171;-73
2022/06/12 00:26:26;;;;;;;14.30;8.73;;;21.30;40.00;;;;;;5060181;28;20978;-72
2022/06/12 00:28:57;;;;;;;16.43;8.67;;;21.20;39.80;;;;;;5062509;28;20560;-71
2022/06/12 00:31:23;;;;;;;11.17;8.27;;;21.20;40.40;;;;;;5059834;28;20423;-72
2022/06/12 00:33:49;;;;;;;15.07;7.93;;;21.20;39.90;;;;;;5059112;28;20995;-74
2022/06/12 00:36:14;;;;;;;12.97;8.30;;;21.10;40.80;;;;;;5060000;28;20175;-71
2022/06/12 00:38:40;;;;;;;11.17;7.60;;;21.10;40.70;;;;;;5069314;28;20203;-71
2022/06/12 00:41:06;;;;;;;15.63;8.30;;;21.10;41.20;;;;;;5059542;28;20547;-72
2022/06/12 00:43:32;;;;;;;10.00;8.20;;;21.30;40.20;;;;;;5062855;28;20664;-71
2022/06/12 00:45:59;;;;;;;10.10;7.93;;;21.20;39.90;;;;;;5062220;28;20429;-71
2022/06/12 00:48:32;;;;;;;9.50;7.67;;;21.20;40.80;;;;;;5062305;28;20199;-71
2022/06/12 00:51:04;;;;;;;16.67;7.97;;;21.10;40.00;;;;;;5062271;28;20465;-71
2022/06/12 00:53:52;;;;;;;9.40;7.57;;;21.20;39.30;;;;;;5059613;28;20793;-72
2022/06/12 00:56:24;;;;;;;15.00;8.33;;;21.10;39.00;;;;;;5067979;28;20509;-71
2022/06/12 00:58:56;;;;;;;12.10;8.50;;;21.00;40.30;;;;;;5065796;28;20488;-73
2022/06/12 01:01:28;;;;;;;11.50;8.00;;;20.90;40.00;;;;;;5067552;28;20433;-71
2022/06/12 01:06:38;;;;;;;21.20;8.53;;;20.70;41.20;;;;;;5063530;28;21006;-72
2022/06/12 01:09:13;;;;;;;11.23;8.60;;;20.70;41.40;;;;;;5063274;28;20469;-73
2022/06/12 01:11:41;;;;;;;13.43;8.30;;;20.70;41.80;;;;;;5061142;28;20544;-71
2022/06/12 01:14:11;;;;;;;14.00;8.73;;;20.70;42.30;;;;;;5060583;28;20437;-71
2022/06/12 01:16:45;;;;;;;10.33;8.10;;;20.60;42.90;;;;;;5058854;28;20430;-71
2022/06/12 01:19:34;;;;;;;16.60;9.07;;;20.60;43.20;;;;;;5063879;28;20441;-71
2022/06/12 01:22:24;;;;;;;13.47;9.60;;;20.60;43.00;;;;;;5061177;28;20441;-71
2022/06/12 01:24:55;;;;;;;13.17;8.80;;;20.60;43.20;;;;;;5064553;28;20437;-71
2022/06/12 01:27:55;;;;;;;19.60;8.70;;;20.70;43.90;;;;;;5058440;28;20499;-71
2022/06/12 01:30:33;;;;;;;18.53;9.33;;;20.50;43.70;;;;;;4987395;28;20511;-71
2022/06/12 01:33:07;;;;;;;10.77;8.60;;;20.50;43.40;;;;;;4987936;28;20447;-71
2022/06/12 01:35:44;;;;;;;14.63;9.60;;;20.40;44.70;;;;;;4988490;28;20435;-72
2022/06/12 01:38:29;;;;;;;17.07;9.43;;;20.40;43.50;;;;;;4987912;28;20916;-71
2022/06/12 01:41:01;;;;;;;14.40;9.10;;;20.50;43.60;;;;;;4984960;28;20989;-71
2022/06/12 01:43:55;;;;;;;12.67;9.50;;;20.70;42.30;;;;;;4987538;28;20446;-71
2022/06/12 01:46:32;;;;;;;22.60;9.50;;;20.50;43.20;;;;;;4930396;28;21068;-71
2022/06/12 01:49:38;;;;;;;14.50;10.00;;;20.50;42.50;;;;;;4988590;28;21046;-71
2022/06/12 01:52:09;;;;;;;16.50;10.23;;;20.30;43.10;;;;;;4972777;28;20550;-71
2022/06/12 01:54:46;;;;;;;21.07;9.67;;;20.10;44.20;;;;;;4990925;28;20530;-71
2022/06/12 01:57:32;;;;;;;14.97;10.27;;;20.00;44.90;;;;;;4991788;28;20465;-71
2022/06/12 02:00:09;;;;;;;16.30;10.07;;;19.90;45.90;;;;;;4991694;28;20475;-71
2022/06/12 02:02:43;;;;;;;13.50;9.90;;;20.00;45.80;;;;;;4986392;28;20443;-71
2022/06/12 02:05:30;;;;;;;17.27;10.20;;;20.00;44.20;;;;;;4991031;28;21015;-71
2022/06/12 02:08:09;;;;;;;12.90;8.80;;;20.00;45.40;;;;;;5062223;28;20472;-71
2022/06/12 02:10:56;;;;;;;14.97;10.00;;;20.00;44.70;;;;;;5061298;28;20437;-71
2022/06/12 02:13:35;;;;;;;12.03;9.23;;;19.90;44.90;;;;;;5063751;28;20427;-72
2022/06/12 02:16:06;;;;;;;18.40;10.40;;;20.00;45.60;;;;;;5064629;28;20492;-71
2022/06/12 02:18:43;;;;;;;14.67;10.67;;;20.10;45.00;;;;;;5062731;28;20488;-71
2022/06/12 02:21:27;;;;;;;13.90;10.33;;;20.00;44.90;;;;;;5070219;28;20436;-71
2022/06/12 02:24:06;;;;;;;15.87;10.60;;;20.00;44.40;;;;;;5065419;28;20434;-71
2022/06/12 02:26:42;;;;;;;14.50;10.10;;;19.90;45.30;;;;;;5071506;28;20458;-72
2022/06/12 02:29:17;;;;;;;16.50;11.03;;;19.70;45.20;;;;;;5063411;28;20490;-71
2022/06/12 02:31:46;;;;;;;19.60;10.93;;;19.90;45.30;;;;;;5067260;28;20453;-71
2022/06/12 02:34:22;;;;;;;14.87;11.27;;;19.70;46.20;;;;;;5063091;28;20434;-71
2022/06/12 02:36:51;;;;;;;17.47;11.93;;;19.60;47.00;;;;;;5061472;28;20513;-72
2022/06/12 02:39:35;;;;;;;17.50;12.60;;;19.50;47.60;;;;;;5062691;28;20500;-71
2022/06/12 02:42:11;;;;;;;17.23;12.60;;;19.50;47.30;;;;;;5070987;28;20560;-71
2022/06/12 02:44:45;;;;;;;16.67;12.20;;;19.40;47.90;;;;;;5066127;28;20437;-71
2022/06/12 02:47:16;;;;;;;21.57;14.07;;;19.40;47.60;;;;;;5066939;28;20486;-71
2022/06/12 02:49:44;;;;;;;19.20;12.83;;;19.40;47.00;;;;;;5070077;28;20457;-72
2022/06/12 02:52:28;;;;;;;26.23;12.83;;;19.50;47.80;;;;;;5063984;28;20435;-71
2022/06/12 02:54:57;;;;;;;21.37;13.20;;;19.60;47.10;;;;;;5062830;28;20436;-72
2022/06/12 02:58:01;;;;;;;21.97;12.10;;;19.60;46.70;;;;;;5068212;28;20456;-71
2022/06/12 03:00:35;;;;;;;19.70;12.40;;;19.80;46.00;;;;;;5068080;28;20493;-72
2022/06/12 03:03:16;;;;;;;25.73;13.10;;;19.90;45.30;;;;;;5068044;28;20443;-71
2022/06/12 03:05:46;;;;;;;17.53;13.03;;;19.70;45.00;;;;;;5069541;28;20444;-71
2022/06/12 03:08:16;;;;;;;23.03;12.97;;;19.60;45.60;;;;;;5062762;28;20471;-71
2022/06/12 03:10:50;;;;;;;16.50;12.57;;;19.50;46.10;;;;;;5065075;28;20434;-71
2022/06/12 03:13:18;;;;;;;22.80;13.10;;;19.40;46.70;;;;;;5068905;28;20447;-71
2022/06/12 03:15:54;;;;;;;19.70;13.70;;;19.30;47.70;;;;;;5063267;28;20464;-71
2022/06/12 03:18:26;;;;;;;17.57;12.43;;;19.20;47.80;;;;;;5067393;28;20469;-71
2022/06/12 03:21:17;;;;;;;23.10;13.20;;;19.20;48.00;;;;;;5066862;28;20435;-71
2022/06/12 03:23:57;;;;;;;19.37;13.20;;;19.30;47.10;;;;;;5065864;28;20430;-71
2022/06/12 03:26:44;;;;;;;20.23;12.90;;;19.30;47.10;;;;;;5062689;28;20934;-72
2022/06/12 03:29:46;;;;;;;18.73;11.37;;;19.30;48.60;;;;;;5067802;28;20438;-71
2022/06/12 03:32:18;;;;;;;20.13;12.30;;;19.20;48.40;;;;;;5059424;28;20811;-71
2022/06/12 03:34:55;;;;;;;14.70;11.10;;;19.30;47.90;;;;;;5062795;28;20529;-71
2022/06/12 03:37:46;;;;;;;22.03;11.63;;;19.30;47.40;;;;;;5066122;28;20525;-71
2022/06/12 03:40:29;;;;;;;19.30;11.80;;;19.30;48.00;;;;;;5043344;28;20460;-71
2022/06/12 03:43:11;;;;;;;15.40;10.87;;;19.40;46.10;;;;;;5065838;28;20441;-71
2022/06/12 03:45:48;;;;;;;15.97;10.90;;;19.40;47.10;;;;;;5064399;28;20441;-72
2022/06/12 03:48:33;;;;;;;14.90;10.93;;;19.20;47.40;;;;;;5061093;28;20870;-71
2022/06/12 03:51:13;;;;;;;17.00;10.40;;;19.20;48.10;;;;;;5068487;28;20523;-72
2022/06/12 03:53:58;;;;;;;16.87;10.00;;;19.30;47.60;;;;;;5064619;28;20444;-71
2022/06/12 03:59:40;;;;;;;16.10;9.93;;;19.10;47.00;;;;;;5062985;28;20427;-72
2022/06/12 04:02:10;;;;;;;14.33;11.37;;;19.20;47.00;;;;;;5062301;28;20938;-74
2022/06/12 04:04:38;;;;;;;20.57;12.10;;;19.20;46.80;;;;;;5065392;28;20425;-71
2022/06/12 04:07:07;;;;;;;17.73;11.90;;;19.20;47.50;;;;;;5069017;28;20507;-71
2022/06/12 04:09:36;;;;;;;18.30;12.53;;;19.30;46.90;;;;;;5066384;28;20451;-71
2022/06/12 04:12:07;;;;;;;17.83;11.37;;;19.20;46.30;;;;;;5059299;28;20464;-71
2022/06/12 04:14:43;;;;;;;19.90;11.47;;;19.20;46.10;;;;;;5070713;28;20417;-71
2022/06/12 04:17:08;;;;;;;12.57;9.97;;;19.10;46.60;;;;;;5067013;28;20993;-74
2022/06/12 04:19:58;;;;;;;15.87;10.30;;;19.10;46.60;;;;;;5063184;28;20438;-71
2022/06/12 04:22:24;;;;;;;16.23;10.80;;;19.10;46.60;;;;;;5060959;28;20561;-71
2022/06/12 04:24:55;;;;;;;13.30;10.17;;;19.10;47.30;;;;;;5063401;28;20719;-71
2022/06/12 04:27:24;;;;;;;19.23;10.20;;;19.30;45.90;;;;;;5066810;28;20483;-71
2022/06/12 04:30:05;;;;;;;13.67;9.30;;;19.30;45.90;;;;;;5059597;28;20487;-71
2022/06/12 04:32:32;;;;;;;14.43;9.50;;;19.40;45.30;;;;;;5069402;28;20999;-71
2022/06/12 04:34:58;;;;;;;21.50;9.83;;;19.40;44.80;;;;;;5062411;28;20842;-71
2022/06/12 04:37:30;;;;;;;17.10;10.03;;;19.30;44.70;;;;;;5065357;28;20477;-71
2022/06/12 04:39:58;;;;;;;16.97;10.20;;;19.20;45.10;;;;;;5065960;28;20444;-71
2022/06/12 04:42:26;;;;;;;14.90;10.60;;;18.90;47.20;;;;;;5064724;28;20434;-71
2022/06/12 04:44:53;;;;;;;23.50;11.30;;;19.00;46.90;;;;;;5057771;28;20803;-71
2022/06/12 04:47:22;;;;;;;25.17;11.77;;;19.10;46.60;;;;;;5061261;28;20475;-71
2022/06/12 04:49:49;;;;;;;13.93;10.60;;;19.00;46.20;;;;;;5063027;28;20440;-73
2022/06/12 04:52:14;;;;;;;14.03;10.07;;;18.40;49.20;;;;;;5061020;28;20479;-71
2022/06/12 04:54:41;;;;;;;11.77;9.37;;;18.60;49.40;;;;;;5061325;28;20434;-71
2022/06/12 04:57:08;;;;;;;18.30;9.47;;;18.50;50.20;;;;;;5066178;28;20213;-71
2022/06/12 04:59:35;;;;;;;17.87;9.63;;;18.40;49.30;;;;;;5059338;28;20814;-71
2022/06/12 05:02:01;;;;;;;13.23;9.63;;;18.60;48.60;;;;;;5066081;28;20497;-71
2022/06/12 05:04:28;;;;;;;12.80;9.10;;;18.70;48.40;;;;;;5065399;28;20531;-71
2022/06/12 05:06:55;;;;;;;15.07;8.87;;;18.70;48.10;;;;;;5062697;28;20926;-72
2022/06/12 05:09:25;;;;;;;11.60;8.50;;;18.60;49.40;;;;;;5066186;28;20439;-71
2022/06/12 05:11:52;;;;;;;16.23;8.37;;;18.50;49.10;;;;;;5058121;28;20850;-71
2022/06/12 05:14:17;;;;;;;15.03;8.30;;;18.70;48.40;;;;;;5060867;28;20434;-71
2022/06/12 05:16:49;;;;;;;11.23;8.17;;;18.60;48.20;;;;;;5062136;28;20479;-71
2022/06/12 05:19:19;;;;;;;17.30;8.60;;;18.80;48.00;;;;;;5061117;28;20726;-71
2022/06/12 05:21:45;;;;;;;11.00;8.63;;;19.40;48.40;;;;;;5062272;28;20428;-73
2022/06/12 05:24:11;;;;;;;13.80;8.50;;;19.90;45.20;;;;;;5061919;28;20530;-71
2022/06/12 05:26:42;;;;;;;11.20;8.23;;;19.90;44.30;;;;;;5058910;28;20472;-71
2022/06/12 05:29:12;;;;;;;12.60;8.00;;;20.20;43.50;;;;;;5066846;28;20475;-71
2022/06/12 05:31:38;;;;;;;11.17;7.77;;;20.40;42.10;;;;;;5058400;28;20441;-71
2022/06/12 05:34:04;;;;;;;11.70;7.70;;;20.10;42.50;;;;;;5066285;28;20474;-71
2022/06/12 05:36:30;;;;;;;11.27;8.07;;;20.10;42.40;;;;;;5061130;28;20228;-71
2022/06/12 05:38:56;;;;;;;10.70;7.77;;;20.10;43.50;;;;;;5065156;28;20283;-71
2022/06/12 05:41:22;;;;;;;14.53;7.57;;;19.90;43.60;;;;;;5060415;28;21054;-71
2022/06/12 05:43:48;;;;;;;14.93;7.50;;;19.30;45.50;;;;;;5062257;28;20515;-71
2022/06/12 05:46:16;;;;;;;15.40;8.30;;;19.50;44.30;;;;;;5061456;28;20177;-70
2022/06/12 05:48:43;;;;;;;11.93;7.73;;;20.10;44.20;;;;;;5063458;28;20235;-71
2022/06/12 05:51:12;;;;;;;9.73;6.70;;;20.50;42.10;;;;;;5060633;28;20442;-73
2022/06/12 05:53:37;;;;;;;9.73;7.20;;;20.70;43.50;;;;;;5061924;28;20479;-70
2022/06/12 05:56:16;;;;;;;8.93;7.50;;;21.00;40.00;;;;;;5060327;28;20472;-70
2022/06/12 05:58:42;;;;;;;11.63;8.27;;;20.60;41.70;;;;;;5063707;28;20191;-70
2022/06/12 06:01:10;;;;;;;14.63;7.50;;;20.90;43.30;;;;;;5067283;28;20471;-70
2022/06/12 06:03:37;;;;;;;24.70;6.90;;;21.10;40.10;;;;;;5061423;28;20539;-69
2022/06/12 06:06:05;;;;;;;13.63;6.93;;;20.80;40.10;;;;;;5072503;28;20774;-69
2022/06/12 06:08:31;;;;;;;9.73;7.00;;;20.30;41.90;;;;;;5063934;28;20470;-70
2022/06/12 06:10:56;;;;;;;10.03;7.10;;;20.50;42.10;;;;;;5073825;28;20518;-71
2022/06/12 06:13:22;;;;;;;10.30;7.10;;;20.50;42.10;;;;;;5062135;28;20200;-69
2022/06/12 06:15:50;;;;;;;10.67;7.20;;;20.90;41.50;;;;;;5066338;28;20212;-70
2022/06/12 06:18:16;;;;;;;7.40;6.60;;;20.70;41.70;;;;;;5065089;28;20201;-70
2022/06/12 06:20:42;;;;;;;9.60;6.90;;;20.90;41.60;;;;;;5058434;28;20432;-69
2022/06/12 06:23:09;;;;;;;10.53;7.10;;;21.00;40.80;;;;;;5059096;28;20963;-70
2022/06/12 06:25:36;;;;;;;10.27;7.13;;;20.90;40.40;;;;;;5065321;28;20192;-70
2022/06/12 06:28:03;;;;;;;11.80;7.20;;;21.10;40.70;;;;;;5060369;28;20476;-69
2022/06/12 06:30:29;;;;;;;16.97;6.87;;;21.10;40.80;;;;;;5062294;28;20515;-69
2022/06/12 06:32:56;;;;;;;9.60;6.33;;;21.20;40.30;;;;;;5069359;28;20444;-69
2022/06/12 06:35:22;;;;;;;8.63;6.87;;;21.20;40.50;;;;;;5071317;28;20431;-69
2022/06/12 06:37:49;;;;;;;8.87;6.90;;;21.40;39.30;;;;;;5072309;28;20534;-69
2022/06/12 06:40:16;;;;;;;10.57;7.40;;;21.50;39.50;;;;;;5062841;28;20448;-70
2022/06/12 06:42:42;;;;;;;11.30;6.10;;;22.00;38.20;;;;;;5065749;28;20520;-69
2022/06/12 06:47:52;;;;;;;9.53;7.27;;;22.00;37.30;;;;;;5068135;28;20620;-69
2022/06/12 06:50:20;;;;;;;8.97;7.33;;;21.90;37.80;;;;;;5069686;28;20430;-69
2022/06/12 06:52:46;;;;;;;12.33;7.40;;;22.00;38.90;;;;;;5065117;28;20246;-69
2022/06/12 06:55:12;;;;;;;10.73;7.33;;;22.20;37.50;;;;;;5062595;28;20442;-69
2022/06/12 06:57:41;;;;;;;9.67;7.23;;;22.30;37.30;;;;;;5066845;28;20201;-69
2022/06/12 07:00:09;;;;;;;10.27;6.93;;;22.20;37.60;;;;;;5067782;28;20441;-69
2022/06/12 07:02:34;;;;;;;9.93;6.63;;;22.00;38.20;;;;;;5065789;28;20461;-70
2022/06/12 07:05:00;;;;;;;9.23;6.83;;;22.00;37.60;;;;;;5069433;28;20489;-69
2022/06/12 07:07:25;;;;;;;14.37;6.90;;;22.30;37.90;;;;;;5063714;28;20235;-70
2022/06/12 07:09:51;;;;;;;10.20;6.77;;;22.30;37.30;;;;;;5069528;28;20567;-69
2022/06/12 07:12:17;;;;;;;9.10;6.60;;;22.40;37.00;;;;;;5063246;28;20225;-69
2022/06/12 07:14:42;;;;;;;13.40;7.00;;;22.50;36.80;;;;;;5071777;28;20265;-69
2022/06/12 07:17:08;;;;;;;8.90;6.80;;;23.10;36.50;;;;;;5067569;28;20212;-71
2022/06/12 07:19:35;;;;;;;10.80;7.53;;;23.50;36.00;;;;;;5066175;28;20194;-69
2022/06/12 07:22:00;;;;;;;11.13;6.80;;;23.60;34.00;;;;;;5061251;28;20187;-69
2022/06/12 07:24:27;;;;;;;9.17;6.87;;;23.50;33.80;;;;;;5071250;28;20960;-70
2022/06/12 07:26:52;;;;;;;8.70;6.43;;;23.20;33.80;;;;;;5058282;28;20462;-70
2022/06/12 07:29:19;;;;;;;9.90;6.27;;;22.90;33.10;;;;;;5061577;28;20919;-70
2022/06/12 07:31:46;;;;;;;8.60;5.93;;;23.10;33.80;;;;;;5053087;28;20635;-70
2022/06/12 07:34:13;;;;;;;7.90;6.20;;;23.10;32.80;;;;;;5060018;28;20436;-70
2022/06/12 07:36:42;;;;;;;7.13;5.80;;;23.10;32.70;;;;;;5073463;28;20805;-70
2022/06/12 07:39:12;;;;;;;9.60;5.70;;;23.50;32.60;;;;;;5073298;28;20423;-70
2022/06/12 07:41:38;;;;;;;9.63;5.67;;;23.50;31.20;;;;;;5072751;28;20503;-70
2022/06/12 07:44:05;;;;;;;10.13;6.27;;;23.20;32.50;;;;;;5072164;28;20409;-70
2022/06/12 07:46:31;;;;;;;7.87;6.00;;;23.30;32.40;;;;;;5072963;28;20452;-70
2022/06/12 07:48:57;;;;;;;10.87;6.43;;;23.00;33.20;;;;;;5072681;28;20505;-70
2022/06/12 07:51:23;;;;;;;10.70;6.43;;;23.00;34.30;;;;;;5073071;28;20206;-70
2022/06/12 07:53:51;;;;;;;8.50;6.60;;;23.60;32.90;;;;;;5072529;28;20417;-70
2022/06/12 07:56:18;;;;;;;13.17;6.40;;;24.20;32.10;;;;;;5072978;28;20412;-68
2022/06/12 07:58:45;;;;;;;9.37;6.87;;;24.70;31.60;;;;;;5072241;28;20433;-70
2022/06/12 08:01:14;;;;;;;13.80;6.20;;;24.90;30.00;;;;;;5072563;28;20785;-70
2022/06/12 08:03:40;;;;;;;9.30;5.40;;;24.50;30.70;;;;;;5072467;28;20608;-72
2022/06/12 08:06:06;;;;;;;10.40;6.27;;;24.00;31.00;;;;;;5071052;28;20998;-70
2022/06/12 08:08:32;;;;;;;9.97;6.20;;;24.10;31.80;;;;;;5072608;28;20249;-68
2022/06/12 08:10:59;;;;;;;8.17;5.47;;;24.90;32.50;;;;;;5072538;28;20171;-72
2022/06/12 08:13:25;;;;;;;9.50;5.77;;;25.50;29.10;;;;;;5072340;28;20410;-71
2022/06/12 08:15:52;;;;;;;7.87;5.80;;;24.70;29.30;;;;;;5072444;28;20467;-69
2022/06/12 08:20:55;;;;;;;8.40;6.10;;;25.00;30.40;;;;;;5047832;28;20466;-71
2022/06/12 08:23:29;;;;;;;8.70;6.03;;;25.60;29.90;;;;;;5032584;28;20997;-73
2022/06/12 08:26:09;;;;;;;8.53;6.50;;;25.20;29.60;;;;;;5032297;28;20393;-73
2022/06/12 08:28:42;;;;;;;8.27;6.63;;;24.50;29.20;;;;;;4745870;28;20450;-69
2022/06/12 08:31:12;;;;;;;7.87;6.60;;;24.70;28.40;;;;;;4693501;28;20524;-69
2022/06/12 08:33:41;;;;;;;10.40;6.90;;;25.10;29.00;;;;;;4855089;28;20426;-73
2022/06/12 08:36:09;;;;;;;13.00;6.00;;;25.50;29.80;;;;;;5052161;28;20466;-73
2022/06/12 08:38:35;;;;;;;7.60;5.60;;;25.80;28.10;;;;;;5051910;28;20419;-73
2022/06/12 08:41:08;;;;;;;1999.90;128.37;;;25.50;28.50;;;;;;5051854;28;20409;-73
2022/06/12 08:43:50;;;;;;;1999.90;999.90;;;25.90;28.40;;;;;;5034129;28;20604;-73
2022/06/12 08:46:22;;;;;;;1999.90;999.90;;;26.20;28.10;;;;;;5051849;28;20406;-72
2022/06/12 08:48:57;;;;;;;1999.90;999.90;;;26.40;27.20;;;;;;5051289;28;20442;-71
2022/06/12 08:51:52;;;;;;;196.70;95.90;;;26.10;27.10;;;;;;5051347;28;21153;-73
2022/06/12 08:54:23;;;;;;;400.53;74.20;;;25.80;28.00;;;;;;5036510;28;20419;-71
2022/06/12 08:56:55;;;;;;;12.77;5.47;;;25.90;27.70;;;;;;5051727;28;20410;-73
2022/06/12 08:59:50;;;;;;;10.07;5.90;;;25.70;28.10;;;;;;5040617;28;20937;-73
2022/06/12 09:02:23;;;;;;;8.50;6.03;;;26.40;26.90;;;;;;5031384;28;20492;-73
2022/06/12 09:04:49;;;;;;;10.17;5.57;;;26.00;27.70;;;;;;5048772;28;20449;-72
2022/06/12 09:07:24;;;;;;;19.00;5.70;;;26.20;28.90;;;;;;5051293;28;20497;-73
2022/06/12 09:09:55;;;;;;;8.00;5.80;;;26.00;27.60;;;;;;5044863;28;20197;-72
2022/06/12 09:12:43;;;;;;;8.33;5.37;;;26.20;27.90;;;;;;5031184;28;20407;-75
2022/06/12 09:15:28;;;;;;;6.70;5.40;;;26.20;27.70;;;;;;5031181;28;20478;-73
2022/06/12 09:18:34;;;;;;;10.37;5.20;;;26.60;27.50;;;;;;5044391;28;20449;-73
2022/06/12 09:21:11;;;;;;;9.40;5.43;;;27.00;26.30;;;;;;5049200;28;20441;-72
2022/06/12 09:23:52;;;;;;;11.93;5.60;;;27.30;25.40;;;;;;5050114;28;20776;-73
2022/06/12 09:26:24;;;;;;;9.20;5.40;;;27.10;26.00;;;;;;5038401;28;20865;-72
2022/06/12 09:29:12;;;;;;;8.90;5.20;;;27.40;25.00;;;;;;5030297;28;20431;-73
2022/06/12 09:32:00;;;;;;;10.40;5.43;;;27.20;25.10;;;;;;5030685;28;20379;-73
2022/06/12 09:34:43;;;;;;;8.00;5.70;;;26.90;24.70;;;;;;5030429;28;20403;-73
2022/06/12 09:40:34;;;;;;;12.50;4.70;;;27.10;24.30;;;;;;5047308;28;20983;-73
2022/06/12 09:43:18;;;;;;;7.60;4.90;;;26.90;24.80;;;;;;5049955;28;20469;-73
2022/06/12 09:45:51;;;;;;;6.77;5.03;;;27.50;24.20;;;;;;5050004;28;20471;-71
2022/06/12 09:48:26;;;;;;;10.60;4.80;;;28.10;22.80;;;;;;5050114;28;20528;-72
2022/06/12 09:50:58;;;;;;;8.33;4.87;;;28.50;22.30;;;;;;5049978;28;20861;-73
2022/06/12 09:53:27;;;;;;;5.87;4.43;;;28.30;20.80;;;;;;5049762;28;20509;-73
2022/06/12 09:56:16;;;;;;;6.33;4.40;;;28.20;22.50;;;;;;5049753;28;20403;-73
2022/06/12 09:58:56;;;;;;;9.97;4.83;;;28.70;22.40;;;;;;5050144;28;20513;-72
2022/06/12 10:01:30;;;;;;;6.90;4.20;;;28.00;20.60;;;;;;5049540;28;20410;-72
2022/06/12 10:04:08;;;;;;;7.53;4.37;;;27.60;20.80;;;;;;5049716;28;20429;-73
2022/06/12 10:06:41;;;;;;;5.23;4.00;;;27.30;20.80;;;;;;5051710;28;20394;-73
2022/06/12 10:09:15;;;;;;;7.57;3.80;;;27.20;18.90;;;;;;5032445;28;20444;-72
2022/06/12 10:11:54;;;;;;;5.73;3.93;;;27.80;20.00;;;;;;5031588;28;20411;-72
2022/06/12 10:14:19;;;;;;;6.73;4.03;;;28.90;19.40;;;;;;5033513;28;20494;-72
2022/06/12 10:17:15;;;;;;;6.07;4.20;;;29.30;20.70;;;;;;5033538;28;20485;-73
2022/06/12 10:19:58;;;;;;;8.57;3.70;;;28.90;19.80;;;;;;4992057;28;1139916;-73
2022/06/12 10:22:35;;;;;;;7.40;4.30;;;28.90;20.50;;;;;;5036324;28;20194;-72
2022/06/12 10:25:04;;;;;;;5.33;3.80;;;28.30;19.30;;;;;;5054302;28;20463;-73
2022/06/12 10:27:46;;;;;;;7.10;4.00;;;28.00;19.10;;;;;;5045040;28;20508;-71
2022/06/12 10:30:41;;;;;;;6.73;4.17;;;27.90;21.10;;;;;;5034146;28;20476;-73
2022/06/12 10:33:25;;;;;;;6.10;4.00;;;28.80;19.00;;;;;;5034043;28;20407;-73
2022/06/12 10:35:56;;;;;;;8.93;4.60;;;28.30;20.00;;;;;;5041621;28;20479;-73
2022/06/12 10:38:26;;;;;;;7.57;4.17;;;27.90;19.70;;;;;;5054350;28;20897;-72
2022/06/12 10:40:57;;;;;;;9.20;3.90;;;28.50;19.00;;;;;;5054054;28;20421;-72
2022/06/12 10:43:31;;;;;;;7.40;4.23;;;28.40;19.50;;;;;;5053888;28;20801;-72
2022/06/12 10:46:32;;;;;;;9.47;4.23;;;29.00;18.00;;;;;;5039306;28;20422;-73
2022/06/12 10:49:15;;;;;;;9.27;4.30;;;28.90;18.90;;;;;;5029542;28;20798;-73
2022/06/12 10:51:42;;;;;;;6.30;3.97;;;28.70;17.80;;;;;;5034120;28;20394;-73
2022/06/12 10:54:21;;;;;;;6.50;3.77;;;28.70;17.90;;;;;;5050938;28;20418;-74
2022/06/12 10:57:02;;;;;;;4.80;3.33;;;29.10;17.50;;;;;;5053899;28;20417;-73
2022/06/12 10:59:41;;;;;;;4.87;3.47;;;30.20;16.50;;;;;;5037971;28;20573;-73
2022/06/12 11:02:07;;;;;;;6.30;3.83;;;30.40;16.00;;;;;;5033711;28;20403;-73
2022/06/12 11:04:47;;;;;;;5.73;3.70;;;30.80;15.20;;;;;;5033424;28;20433;-73
2022/06/12 11:07:38;;;;;;;6.10;3.60;;;30.70;15.40;;;;;;5033641;28;20660;-73
2022/06/12 11:10:43;;;;;;;8.90;3.80;;;30.20;16.90;;;;;;5033566;28;20788;-73
2022/06/12 11:13:40;;;;;;;5.63;3.47;;;29.50;16.90;;;;;;4939562;28;20529;-71
2022/06/12 11:16:40;;;;;;;7.33;4.30;;;29.40;17.20;;;;;;5035582;28;20414;-73
2022/06/12 11:19:29;;;;;;;5.47;3.70;;;29.50;16.90;;;;;;5051909;28;20553;-73
2022/06/12 11:22:03;;;;;;;7.97;3.30;;;30.10;16.20;;;;;;5035216;28;20410;-72
2022/06/12 11:24:45;;;;;;;6.93;3.83;;;30.50;16.40;;;;;;5053267;28;20447;-73
2022/06/12 11:27:19;;;;;;;5.70;3.40;;;30.20;16.70;;;;;;5053291;28;20496;-73
2022/06/12 11:30:26;;;;;;;8.83;3.50;;;30.80;18.80;;;;;;5052968;28;20464;-73
2022/06/12 11:33:13;;;;;;;6.07;3.67;;;32.30;17.80;;;;;;5043003;28;20957;-73
2022/06/12 11:36:09;;;;;;;4.63;3.13;;;33.00;13.10;;;;;;5053096;28;20485;-74
2022/06/12 11:38:49;;;;;;;8.17;3.20;;;33.80;12.80;;;;;;5053277;28;20401;-73
2022/06/12 11:41:50;;;;;;;13.30;3.60;;;33.20;12.50;;;;;;5052670;28;20438;-74
2022/06/12 11:44:36;;;;;;;5.20;3.13;;;33.80;11.80;;;;;;5029159;28;20426;-73
2022/06/12 11:47:26;;;;;;;7.23;3.30;;;33.90;13.60;;;;;;5052461;28;20470;-74
2022/06/12 11:49:58;;;;;;;6.10;2.97;;;34.80;11.00;;;;;;5052589;28;20933;-73
2022/06/12 11:52:38;;;;;;;9.20;3.17;;;34.80;10.40;;;;;;5052515;28;20418;-73
2022/06/12 11:55:17;;;;;;;6.37;2.90;;;34.10;11.90;;;;;;5052552;28;20458;-74
2022/06/12 11:58:42;;;;;;;4.40;3.10;;;34.60;10.50;;;;;;5052999;28;20414;-73
2022/06/12 12:01:23;;;;;;;13.47;3.27;;;33.30;11.50;;;;;;4951943;29;20442;-73
2022/06/12 12:04:22;;;;;;;5.00;3.10;;;33.30;11.20;;;;;;4936286;29;20490;-72
2022/06/12 12:06:48;;;;;;;5.33;3.53;;;31.90;12.50;;;;;;4952056;29;20862;-73
2022/06/12 12:09:23;;;;;;;8.57;3.60;;;32.20;12.60;;;;;;4952128;29;20438;-72
2022/06/12 12:12:04;;;;;;;5.73;2.87;;;32.60;12.50;;;;;;4951766;29;20183;-71
2022/06/12 12:14:34;;;;;;;6.23;3.10;;;34.60;15.10;;;;;;4952224;29;20418;-74
2022/06/12 12:17:28;;;;;;;8.13;3.33;;;35.20;10.20;;;;;;4952039;29;20434;-74
2022/06/12 12:19:58;;;;;;;4.70;3.17;;;34.20;10.40;;;;;;4951420;29;20482;-72
2022/06/12 12:22:42;;;;;;;4.83;3.33;;;34.60;11.30;;;;;;4951839;29;20875;-73
2022/06/12 12:25:16;;;;;;;3.97;3.07;;;35.90;11.30;;;;;;4951431;29;20430;-74
2022/06/12 12:27:48;;;;;;;10.73;3.13;;;36.70;10.20;;;;;;4939716;29;20601;-74
2022/06/12 12:30:18;;;;;;;4.60;3.17;;;34.60;10.50;;;;;;4932213;29;20458;-73
2022/06/12 12:32:47;;;;;;;7.17;3.70;;;32.50;12.10;;;;;;5018349;28;20796;-73
2022/06/12 12:41:11;;;;;;;4.90;3.10;;;31.20;13.30;;;;;;5032135;28;20419;-72
2022/06/12 12:43:28;;;;;;;6.67;3.60;;;32.70;12.50;;;;;;5052565;28;20401;-73
2022/06/12 12:46:05;;;;;;;4.17;3.20;;;32.90;11.40;;;;;;5051633;28;20795;-72
2022/06/12 12:48:46;;;;;;;4.80;3.63;;;32.20;12.60;;;;;;5035444;28;20206;-71
2022/06/12 12:51:32;;;;;;;6.00;3.30;;;32.00;14.40;;;;;;5031987;28;20411;-73
2022/06/12 12:54:18;;;;;;;5.70;3.20;;;31.30;14.30;;;;;;5031523;28;20435;-73
2022/06/12 12:57:04;;;;;;;5.07;3.10;;;32.70;14.70;;;;;;5031643;28;20490;-72
2022/06/12 12:59:46;;;;;;;6.17;3.70;;;33.60;12.10;;;;;;5031931;28;20434;-73
2022/06/12 13:02:19;;;;;;;5.40;3.43;;;34.30;12.40;;;;;;5034127;28;20934;-73
2022/06/12 13:04:44;;;;;;;5.70;3.40;;;34.60;11.00;;;;;;5033409;28;20454;-73
2022/06/12 13:07:48;;;;;;;6.70;3.57;;;34.30;13.80;;;;;;5051455;28;20486;-73
2022/06/12 13:10:29;;;;;;;5.83;3.50;;;33.20;12.40;;;;;;5051527;28;20210;-73
2022/06/12 13:13:32;;;;;;;10.10;3.40;;;32.00;13.40;;;;;;5051101;28;20795;-72
2022/06/12 13:16:03;;;;;;;6.03;3.70;;;32.00;14.10;;;;;;5051128;28;21023;-73
2022/06/12 13:18:43;;;;;;;5.10;3.30;;;31.80;14.00;;;;;;5049498;28;20418;-73
2022/06/12 13:21:36;;;;;;;5.03;3.93;;;32.10;14.80;;;;;;5051180;28;20430;-73
2022/06/12 13:24:28;;;;;;;6.13;3.87;;;32.00;14.00;;;;;;5051093;28;20460;-73
2022/06/12 13:26:55;;;;;;;4.87;3.30;;;32.30;13.00;;;;;;5050208;28;20450;-73
2022/06/12 13:29:23;;;;;;;4.60;3.57;;;32.90;12.40;;;;;;5049493;28;20513;-73
2022/06/12 13:32:06;;;;;;;6.13;3.43;;;33.70;11.30;;;;;;5051236;28;20422;-72
2022/06/12 13:34:32;;;;;;;4.50;3.80;;;32.40;12.70;;;;;;5050647;28;20433;-73
2022/06/12 13:36:59;;;;;;;6.90;4.07;;;31.60;14.10;;;;;;5016868;28;20438;-74